sensor_id;sensor_type;location;lat;lon;timestamp;pressure;altitude;pressure_sealevel;temperature;humidity
52735;BME280;38631;47.572;10.704;2023-03-26T00:00:36;92155.56;;;6.28;81.87
52735;BME280;38631;47.572;10.704;2023-03-26T00:03:03;92147.16;;;6.26;81.90
52735;BME280;38631;47.572;10.704;2023-03-26T00:05:29;92132.69;;;6.23;82.30
52735;BME280;38631;47.572;10.704;2023-03-26T00:07:56;92127.03;;;5.97;84.05
52735;BME280;38631;47.572;10.704;2023-03-26T00:10:21;92140.50;;;6.15;84.47
52735;BME280;38631;47.572;10.704;2023-03-26T00:12:47;92141.78;;;6.17;85.43
52735;BME280;38631;47.572;10.704;2023-03-26T00:15:12;92138.41;;;6.12;85.82
52735;BME280;38631;47.572;10.704;2023-03-26T00:17:37;92146.91;;;6.09;87.57
52735;BME280;38631;47.572;10.704;2023-03-26T00:20:03;92139.25;;;5.88;88.73
52735;BME280;38631;47.572;10.704;2023-03-26T00:22:29;92131.16;;;6.03;87.40
52735;BME280;38631;47.572;10.704;2023-03-26T00:24:54;92134.13;;;5.59;89.38
52735;BME280;38631;47.572;10.704;2023-03-26T00:27:21;92126.16;;;5.45;91.74
52735;BME280;38631;47.572;10.704;2023-03-26T00:29:47;92117.59;;;5.34;90.83
52735;BME280;38631;47.572;10.704;2023-03-26T00:32:13;92120.75;;;5.74;89.12
52735;BME280;38631;47.572;10.704;2023-03-26T00:34:38;92126.25;;;5.97;88.88
52735;BME280;38631;47.572;10.704;2023-03-26T00:37:05;92125.31;;;5.88;89.78
52735;BME280;38631;47.572;10.704;2023-03-26T00:39:30;92134.56;;;5.85;88.12
52735;BME280;38631;47.572;10.704;2023-03-26T00:41:57;92122.16;;;5.67;90.60
52735;BME280;38631;47.572;10.704;2023-03-26T00:44:23;92129.34;;;5.42;91.81
52735;BME280;38631;47.572;10.704;2023-03-26T00:46:48;92130.78;;;5.72;91.43
52735;BME280;38631;47.572;10.704;2023-03-26T00:49:14;92119.34;;;5.82;90.12
52735;BME280;38631;47.572;10.704;2023-03-26T00:51:40;92120.47;;;5.76;90.72
52735;BME280;38631;47.572;10.704;2023-03-26T00:54:06;92106.94;;;5.63;90.43
52735;BME280;38631;47.572;10.704;2023-03-26T00:56:32;92103.09;;;5.56;89.84
52735;BME280;38631;47.572;10.704;2023-03-26T00:58:58;92112.47;;;5.81;89.44
52735;BME280;38631;47.572;10.704;2023-03-26T01:01:25;92110.91;;;5.61;89.48
52735;BME280;38631;47.572;10.704;2023-03-26T01:03:52;92111.97;;;5.79;89.21
52735;BME280;38631;47.572;10.704;2023-03-26T01:06:26;92106.50;;;5.75;90.49
52735;BME280;38631;47.572;10.704;2023-03-26T01:08:57;92109.56;;;5.45;91.69
52735;BME280;38631;47.572;10.704;2023-03-26T01:11:30;92113.72;;;5.70;91.56
52735;BME280;38631;47.572;10.704;2023-03-26T01:13:59;92103.78;;;5.61;91.69
52735;BME280;38631;47.572;10.704;2023-03-26T01:16:51;92097.31;;;5.73;90.79
52735;BME280;38631;47.572;10.704;2023-03-26T01:19:38;92102.66;;;5.87;88.75
52735;BME280;38631;47.572;10.704;2023-03-26T01:22:10;92100.38;;;5.80;89.59
52735;BME280;38631;47.572;10.704;2023-03-26T01:24:40;92098.38;;;5.91;90.12
52735;BME280;38631;47.572;10.704;2023-03-26T01:27:15;92092.84;;;5.54;91.18
52735;BME280;38631;47.572;10.704;2023-03-26T01:29:52;92087.84;;;5.53;91.60
52735;BME280;38631;47.572;10.704;2023-03-26T01:32:34;92089.47;;;5.87;90.30
52735;BME280;38631;47.572;10.704;2023-03-26T01:35:13;92074.69;;;5.53;91.51
52735;BME280;38631;47.572;10.704;2023-03-26T01:40:22;92075.03;;;5.84;90.71
52735;BME280;38631;47.572;10.704;2023-03-26T01:45:40;92068.13;;;5.69;85.46
52735;BME280;38631;47.572;10.704;2023-03-26T01:48:06;92068.34;;;5.73;85.51
52735;BME280;38631;47.572;10.704;2023-03-26T01:50:32;92063.94;;;5.68;86.88
52735;BME280;38631;47.572;10.704;2023-03-26T01:52:57;92064.56;;;5.79;88.63
52735;BME280;38631;47.572;10.704;2023-03-26T01:55:28;92073.06;;;5.95;88.33
52735;BME280;38631;47.572;10.704;2023-03-26T01:58:05;92071.97;;;5.96;87.97
52735;BME280;38631;47.572;10.704;2023-03-26T02:01:05;92064.78;;;5.82;89.14
52735;BME280;38631;47.572;10.704;2023-03-26T02:03:50;92078.44;;;6.03;87.41
52735;BME280;38631;47.572;10.704;2023-03-26T02:06:22;92067.72;;;6.00;89.15
52735;BME280;38631;47.572;10.704;2023-03-26T02:08:52;92063.41;;;6.04;89.69
52735;BME280;38631;47.572;10.704;2023-03-26T02:11:20;92056.09;;;6.01;89.03
52735;BME280;38631;47.572;10.704;2023-03-26T02:13:45;92050.13;;;5.95;89.48
52735;BME280;38631;47.572;10.704;2023-03-26T02:16:14;92039.66;;;5.71;91.44
52735;BME280;38631;47.572;10.704;2023-03-26T02:18:41;92043.66;;;5.50;91.91
52735;BME280;38631;47.572;10.704;2023-03-26T02:21:26;92032.41;;;5.44;92.86
52735;BME280;38631;47.572;10.704;2023-03-26T02:23:54;92031.94;;;5.42;93.05
52735;BME280;38631;47.572;10.704;2023-03-26T02:26:28;92033.19;;;5.63;91.95
52735;BME280;38631;47.572;10.704;2023-03-26T02:28:54;92032.59;;;5.67;91.46
52735;BME280;38631;47.572;10.704;2023-03-26T02:31:20;92032.00;;;5.89;92.09
52735;BME280;38631;47.572;10.704;2023-03-26T02:33:46;92029.38;;;5.89;92.40
52735;BME280;38631;47.572;10.704;2023-03-26T02:36:14;92010.59;;;5.76;92.58
52735;BME280;38631;47.572;10.704;2023-03-26T02:38:42;92002.91;;;5.47;92.74
52735;BME280;38631;47.572;10.704;2023-03-26T02:41:07;92007.25;;;5.71;93.03
52735;BME280;38631;47.572;10.704;2023-03-26T02:43:32;91998.34;;;5.85;93.01
52735;BME280;38631;47.572;10.704;2023-03-26T02:45:58;92004.47;;;5.81;92.91
52735;BME280;38631;47.572;10.704;2023-03-26T02:48:23;91994.16;;;5.84;92.06
52735;BME280;38631;47.572;10.704;2023-03-26T02:50:49;91989.06;;;5.74;92.16
52735;BME280;38631;47.572;10.704;2023-03-26T02:53:19;91991.81;;;5.64;92.46
52735;BME280;38631;47.572;10.704;2023-03-26T02:55:46;91984.91;;;5.68;91.53
52735;BME280;38631;47.572;10.704;2023-03-26T02:58:11;91980.94;;;5.71;91.89
52735;BME280;38631;47.572;10.704;2023-03-26T03:00:37;91970.75;;;5.64;92.73
52735;BME280;38631;47.572;10.704;2023-03-26T03:03:02;91962.84;;;5.64;94.46
52735;BME280;38631;47.572;10.704;2023-03-26T03:05:30;91973.06;;;5.84;93.81
52735;BME280;38631;47.572;10.704;2023-03-26T03:07:56;91971.38;;;5.75;94.67
52735;BME280;38631;47.572;10.704;2023-03-26T03:10:23;91960.53;;;5.62;94.01
52735;BME280;38631;47.572;10.704;2023-03-26T03:12:49;91965.94;;;5.52;94.32
52735;BME280;38631;47.572;10.704;2023-03-26T03:15:14;91974.47;;;5.63;94.72
52735;BME280;38631;47.572;10.704;2023-03-26T03:17:40;91979.47;;;5.65;93.78
52735;BME280;38631;47.572;10.704;2023-03-26T03:20:06;92004.97;;;5.83;93.41
52735;BME280;38631;47.572;10.704;2023-03-26T03:22:35;92007.25;;;5.71;94.10
52735;BME280;38631;47.572;10.704;2023-03-26T03:25:01;92001.38;;;5.60;93.93
52735;BME280;38631;47.572;10.704;2023-03-26T03:27:27;91993.75;;;5.58;93.73
52735;BME280;38631;47.572;10.704;2023-03-26T03:29:52;91978.47;;;5.41;95.61
52735;BME280;38631;47.572;10.704;2023-03-26T03:32:20;91953.72;;;5.24;96.07
52735;BME280;38631;47.572;10.704;2023-03-26T03:34:46;91940.53;;;5.10;96.25
52735;BME280;38631;47.572;10.704;2023-03-26T03:37:14;91928.16;;;5.10;97.32
52735;BME280;38631;47.572;10.704;2023-03-26T03:39:39;91921.00;;;5.30;97.14
52735;BME280;38631;47.572;10.704;2023-03-26T03:42:04;91915.06;;;5.05;97.55
52735;BME280;38631;47.572;10.704;2023-03-26T03:44:30;91916.16;;;5.04;97.42
52735;BME280;38631;47.572;10.704;2023-03-26T03:46:55;91905.31;;;5.25;91.31
52735;BME280;38631;47.572;10.704;2023-03-26T03:49:21;91887.06;;;5.28;90.53
52735;BME280;38631;47.572;10.704;2023-03-26T03:51:46;91885.19;;;5.61;90.20
52735;BME280;38631;47.572;10.704;2023-03-26T03:54:12;91884.25;;;5.71;90.06
52735;BME280;38631;47.572;10.704;2023-03-26T03:56:37;91875.06;;;5.69;90.46
52735;BME280;38631;47.572;10.704;2023-03-26T03:59:04;91873.69;;;5.57;89.94
52735;BME280;38631;47.572;10.704;2023-03-26T04:01:29;91864.28;;;5.37;92.70
52735;BME280;38631;47.572;10.704;2023-03-26T04:03:56;91868.47;;;5.38;93.67
52735;BME280;38631;47.572;10.704;2023-03-26T04:06:22;91867.00;;;5.32;93.95
52735;BME280;38631;47.572;10.704;2023-03-26T04:08:50;91862.13;;;5.26;94.64
52735;BME280;38631;47.572;10.704;2023-03-26T04:11:15;91850.91;;;5.34;93.90
52735;BME280;38631;47.572;10.704;2023-03-26T04:13:41;91864.53;;;5.55;93.14
52735;BME280;38631;47.572;10.704;2023-03-26T04:16:07;91860.91;;;5.51;93.30
52735;BME280;38631;47.572;10.704;2023-03-26T04:18:34;91839.41;;;5.30;95.05
52735;BME280;38631;47.572;10.704;2023-03-26T04:21:02;91844.59;;;5.35;95.49
52735;BME280;38631;47.572;10.704;2023-03-26T04:23:30;91832.53;;;5.48;95.03
52735;BME280;38631;47.572;10.704;2023-03-26T04:25:57;91836.53;;;5.59;94.83
52735;BME280;38631;47.572;10.704;2023-03-26T04:28:30;91842.25;;;5.33;95.48
52735;BME280;38631;47.572;10.704;2023-03-26T04:30:59;91846.38;;;5.53;95.31
52735;BME280;38631;47.572;10.704;2023-03-26T04:33:30;91849.03;;;5.67;94.33
52735;BME280;38631;47.572;10.704;2023-03-26T04:35:56;91849.19;;;5.43;95.48
52735;BME280;38631;47.572;10.704;2023-03-26T04:38:28;91853.00;;;5.51;95.22
52735;BME280;38631;47.572;10.704;2023-03-26T04:40:53;91854.72;;;5.28;96.53
52735;BME280;38631;47.572;10.704;2023-03-26T04:43:23;91843.19;;;5.24;96.22
52735;BME280;38631;47.572;10.704;2023-03-26T04:45:49;91835.69;;;5.17;96.53
52735;BME280;38631;47.572;10.704;2023-03-26T04:48:14;91835.34;;;5.51;95.27
52735;BME280;38631;47.572;10.704;2023-03-26T04:50:44;91824.69;;;5.29;95.52
52735;BME280;38631;47.572;10.704;2023-03-26T04:53:11;91832.88;;;5.27;96.04
52735;BME280;38631;47.572;10.704;2023-03-26T04:55:46;91831.06;;;5.09;96.12
52735;BME280;38631;47.572;10.704;2023-03-26T04:58:13;91836.47;;;5.31;95.82
52735;BME280;38631;47.572;10.704;2023-03-26T05:00:40;91831.94;;;5.51;94.64
52735;BME280;38631;47.572;10.704;2023-03-26T05:03:08;91819.03;;;5.35;95.38
52735;BME280;38631;47.572;10.704;2023-03-26T05:05:34;91812.53;;;5.00;96.63
52735;BME280;38631;47.572;10.704;2023-03-26T05:07:59;91797.09;;;4.93;98.41
52735;BME280;38631;47.572;10.704;2023-03-26T05:10:25;91802.19;;;4.90;98.65
52735;BME280;38631;47.572;10.704;2023-03-26T05:12:51;91801.84;;;5.10;96.98
52735;BME280;38631;47.572;10.704;2023-03-26T05:15:16;91805.88;;;5.35;96.42
52735;BME280;38631;47.572;10.704;2023-03-26T05:17:42;91799.06;;;5.34;96.54
52735;BME280;38631;47.572;10.704;2023-03-26T05:20:20;91799.06;;;5.48;96.13
52735;BME280;38631;47.572;10.704;2023-03-26T05:22:47;91795.84;;;5.51;96.06
52735;BME280;38631;47.572;10.704;2023-03-26T05:25:13;91788.53;;;5.34;95.98
52735;BME280;38631;47.572;10.704;2023-03-26T05:27:38;91787.47;;;5.35;95.66
52735;BME280;38631;47.572;10.704;2023-03-26T05:30:05;91787.00;;;5.47;97.08
52735;BME280;38631;47.572;10.704;2023-03-26T05:32:31;91772.16;;;5.37;97.03
52735;BME280;38631;47.572;10.704;2023-03-26T05:34:57;91777.69;;;5.36;96.49
52735;BME280;38631;47.572;10.704;2023-03-26T05:37:22;91768.22;;;5.21;98.15
52735;BME280;38631;47.572;10.704;2023-03-26T05:39:52;91773.72;;;5.38;97.72
52735;BME280;38631;47.572;10.704;2023-03-26T05:42:18;91768.06;;;5.45;97.87
52735;BME280;38631;47.572;10.704;2023-03-26T05:44:43;91767.47;;;5.34;98.68
52735;BME280;38631;47.572;10.704;2023-03-26T05:47:09;91760.25;;;5.26;98.24
52735;BME280;38631;47.572;10.704;2023-03-26T05:49:34;91752.16;;;5.23;99.01
52735;BME280;38631;47.572;10.704;2023-03-26T05:52:00;91763.63;;;5.13;97.40
52735;BME280;38631;47.572;10.704;2023-03-26T05:54:25;91757.13;;;5.38;97.46
52735;BME280;38631;47.572;10.704;2023-03-26T05:56:51;91759.41;;;5.45;97.86
52735;BME280;38631;47.572;10.704;2023-03-26T05:59:16;91749.06;;;5.34;98.42
52735;BME280;38631;47.572;10.704;2023-03-26T06:01:42;91751.09;;;5.51;98.02
52735;BME280;38631;47.572;10.704;2023-03-26T06:04:11;91740.28;;;5.53;98.09
52735;BME280;38631;47.572;10.704;2023-03-26T06:06:37;91725.47;;;5.29;98.20
52735;BME280;38631;47.572;10.704;2023-03-26T06:09:03;91725.72;;;5.14;99.59
52735;BME280;38631;47.572;10.704;2023-03-26T06:11:30;91716.56;;;5.25;99.53
52735;BME280;38631;47.572;10.704;2023-03-26T06:13:56;91719.69;;;5.41;98.66
52735;BME280;38631;47.572;10.704;2023-03-26T06:16:21;91707.03;;;5.57;98.11
52735;BME280;38631;47.572;10.704;2023-03-26T06:18:46;91688.00;;;5.60;98.32
52735;BME280;38631;47.572;10.704;2023-03-26T06:21:12;91681.09;;;5.50;99.80
52735;BME280;38631;47.572;10.704;2023-03-26T06:23:37;91676.19;;;5.57;97.99
52735;BME280;38631;47.572;10.704;2023-03-26T06:26:03;91671.78;;;5.67;98.07
52735;BME280;38631;47.572;10.704;2023-03-26T06:28:28;91668.47;;;5.61;99.10
52735;BME280;38631;47.572;10.704;2023-03-26T06:30:53;91668.47;;;5.61;99.46
52735;BME280;38631;47.572;10.704;2023-03-26T06:33:22;91679.13;;;5.56;100.00
52735;BME280;38631;47.572;10.704;2023-03-26T06:35:48;91672.16;;;5.74;99.42
52735;BME280;38631;47.572;10.704;2023-03-26T06:38:14;91662.72;;;5.59;98.42
52735;BME280;38631;47.572;10.704;2023-03-26T06:40:39;91657.56;;;5.68;98.24
52735;BME280;38631;47.572;10.704;2023-03-26T06:43:04;91646.34;;;5.62;98.50
52735;BME280;38631;47.572;10.704;2023-03-26T06:45:31;91634.91;;;5.67;98.47
52735;BME280;38631;47.572;10.704;2023-03-26T06:47:57;91621.84;;;5.61;98.11
52735;BME280;38631;47.572;10.704;2023-03-26T06:50:22;91621.22;;;5.78;96.45
52735;BME280;38631;47.572;10.704;2023-03-26T06:52:48;91625.50;;;5.88;96.55
52735;BME280;38631;47.572;10.704;2023-03-26T06:55:14;91612.44;;;5.83;96.74
52735;BME280;38631;47.572;10.704;2023-03-26T06:57:40;91602.75;;;5.56;97.67
52735;BME280;38631;47.572;10.704;2023-03-26T07:00:07;91604.94;;;5.76;97.70
52735;BME280;38631;47.572;10.704;2023-03-26T07:02:32;91600.25;;;5.87;97.53
52735;BME280;38631;47.572;10.704;2023-03-26T07:04:58;91595.09;;;5.82;97.74
52735;BME280;38631;47.572;10.704;2023-03-26T07:07:23;91595.03;;;5.96;97.22
52735;BME280;38631;47.572;10.704;2023-03-26T07:09:49;91588.91;;;5.87;98.39
52735;BME280;38631;47.572;10.704;2023-03-26T07:12:15;91591.31;;;5.74;97.72
52735;BME280;38631;47.572;10.704;2023-03-26T07:14:40;91576.69;;;5.91;97.48
52735;BME280;38631;47.572;10.704;2023-03-26T07:17:06;91581.75;;;6.01;97.90
52735;BME280;38631;47.572;10.704;2023-03-26T07:19:31;91569.47;;;5.96;97.14
52735;BME280;38631;47.572;10.704;2023-03-26T07:21:57;91567.84;;;6.09;96.86
52735;BME280;38631;47.572;10.704;2023-03-26T07:24:23;91570.84;;;5.94;95.98
52735;BME280;38631;47.572;10.704;2023-03-26T07:26:57;91573.59;;;6.11;96.46
52735;BME280;38631;47.572;10.704;2023-03-26T07:30:29;91570.19;;;6.11;96.17
52735;BME280;38631;47.572;10.704;2023-03-26T07:32:46;91583.25;;;6.16;94.92
52735;BME280;38631;47.572;10.704;2023-03-26T07:35:25;91582.34;;;6.20;94.29
52735;BME280;38631;47.572;10.704;2023-03-26T07:45:45;91599.84;;;5.94;94.09
52735;BME280;38631;47.572;10.704;2023-03-26T07:48:21;91612.72;;;6.18;94.40
52735;BME280;38631;47.572;10.704;2023-03-26T07:50:50;91605.94;;;6.03;93.96
52735;BME280;38631;47.572;10.704;2023-03-26T07:53:15;91611.72;;;6.05;92.82
52735;BME280;38631;47.572;10.704;2023-03-26T07:59:05;91613.00;;;6.16;90.17
52735;BME280;38631;47.572;10.704;2023-03-26T08:18:40;91615.63;;;6.39;90.30
52735;BME280;38631;47.572;10.704;2023-03-26T08:21:18;91613.97;;;6.43;90.43
52735;BME280;38631;47.572;10.704;2023-03-26T08:24:15;91615.16;;;6.37;88.89
52735;BME280;38631;47.572;10.704;2023-03-26T08:30:12;91608.97;;;6.41;87.70
52735;BME280;38631;47.572;10.704;2023-03-26T08:32:19;91593.00;;;6.38;87.68
52735;BME280;38631;47.572;10.704;2023-03-26T08:34:45;91590.97;;;6.35;90.60
52735;BME280;38631;47.572;10.704;2023-03-26T08:37:11;91601.84;;;6.42;90.30
52735;BME280;38631;47.572;10.704;2023-03-26T08:39:37;91606.81;;;6.43;90.45
52735;BME280;38631;47.572;10.704;2023-03-26T08:55:24;91592.09;;;5.75;99.09
52735;BME280;38631;47.572;10.704;2023-03-26T09:03:51;91585.69;;;5.53;99.65
52735;BME280;38631;47.572;10.704;2023-03-26T09:15:23;91570.91;;;6.02;100.00
52735;BME280;38631;47.572;10.704;2023-03-26T09:20:43;91552.25;;;6.21;100.00
52735;BME280;38631;47.572;10.704;2023-03-26T09:32:18;91542.63;;;6.17;100.00
52735;BME280;38631;47.572;10.704;2023-03-26T09:37:24;91568.19;;;6.16;100.00
52735;BME280;38631;47.572;10.704;2023-03-26T09:40:14;91565.66;;;5.89;100.00
52735;BME280;38631;47.572;10.704;2023-03-26T09:42:51;91570.41;;;5.41;100.00
52735;BME280;38631;47.572;10.704;2023-03-26T09:50:49;91556.00;;;5.98;100.00
52735;BME280;38631;47.572;10.704;2023-03-26T09:58:54;91552.69;;;5.92;100.00
52735;BME280;38631;47.572;10.704;2023-03-26T10:01:35;91560.53;;;5.83;100.00
52735;BME280;38631;47.572;10.704;2023-03-26T10:07:04;91553.16;;;5.72;100.00
52735;BME280;38631;47.572;10.704;2023-03-26T10:12:24;91570.56;;;5.81;100.00
52735;BME280;38631;47.572;10.704;2023-03-26T10:15:12;91550.09;;;5.78;100.00
52735;BME280;38631;47.572;10.704;2023-03-26T10:20:54;91579.44;;;5.85;100.00
52735;BME280;38631;47.572;10.704;2023-03-26T10:23:51;91543.41;;;5.72;100.00
52735;BME280;38631;47.572;10.704;2023-03-26T10:26:52;91510.19;;;5.40;100.00
52735;BME280;38631;47.572;10.704;2023-03-26T10:31:51;91503.66;;;5.37;100.00
52735;BME280;38631;47.572;10.704;2023-03-26T10:40:15;91495.88;;;5.77;100.00
52735;BME280;38631;47.572;10.704;2023-03-26T10:48:15;91518.41;;;6.46;98.80
52735;BME280;38631;47.572;10.704;2023-03-26T10:53:42;91528.06;;;6.51;97.54
52735;BME280;38631;47.572;10.704;2023-03-26T10:58:42;91523.56;;;6.51;98.10
52735;BME280;38631;47.572;10.704;2023-03-26T11:01:17;91520.09;;;6.42;95.63
52735;BME280;38631;47.572;10.704;2023-03-26T11:03:48;91523.22;;;6.44;95.53
52735;BME280;38631;47.572;10.704;2023-03-26T11:14:20;91537.69;;;6.55;97.67
52735;BME280;38631;47.572;10.704;2023-03-26T11:19:56;91526.88;;;6.65;98.48
52735;BME280;38631;47.572;10.704;2023-03-26T11:25:25;91527.50;;;6.62;98.60
52735;BME280;38631;47.572;10.704;2023-03-26T11:33:17;91530.81;;;6.85;98.24
52735;BME280;38631;47.572;10.704;2023-03-26T11:35:48;91531.94;;;6.93;97.95
52735;BME280;38631;47.572;10.704;2023-03-26T11:38:20;91548.38;;;6.99;95.56
52735;BME280;38631;47.572;10.704;2023-03-26T11:40:50;91541.09;;;6.96;94.96
52735;BME280;38631;47.572;10.704;2023-03-26T11:43:24;91536.78;;;7.00;94.42
52735;BME280;38631;47.572;10.704;2023-03-26T11:45:52;91548.44;;;7.07;95.42
52735;BME280;38631;47.572;10.704;2023-03-26T11:48:24;91561.28;;;7.00;92.79
52735;BME280;38631;47.572;10.704;2023-03-26T11:51:08;91560.00;;;6.89;94.61
52735;BME280;38631;47.572;10.704;2023-03-26T11:53:36;91552.00;;;6.63;97.05
52735;BME280;38631;47.572;10.704;2023-03-26T11:56:36;91551.75;;;6.42;96.47
52735;BME280;38631;47.572;10.704;2023-03-26T11:59:14;91553.78;;;6.45;95.75
52735;BME280;38631;47.572;10.704;2023-03-26T12:04:14;91578.34;;;6.23;96.59
52735;BME280;38631;47.572;10.704;2023-03-26T12:06:54;91574.25;;;6.17;99.06
52735;BME280;38631;47.572;10.704;2023-03-26T12:09:21;91576.09;;;6.39;99.75
52735;BME280;38631;47.572;10.704;2023-03-26T12:11:47;91572.88;;;6.19;100.00
52735;BME280;38631;47.572;10.704;2023-03-26T12:14:23;91573.69;;;6.28;100.00
52735;BME280;38631;47.572;10.704;2023-03-26T12:17:29;91563.28;;;6.23;99.67
52735;BME280;38631;47.572;10.704;2023-03-26T12:19:57;91571.22;;;6.01;97.80
52735;BME280;38631;47.572;10.704;2023-03-26T12:22:35;91570.59;;;6.04;99.95
52735;BME280;38631;47.572;10.704;2023-03-26T12:28:36;91570.44;;;5.87;100.00
52735;BME280;38631;47.572;10.704;2023-03-26T12:30:39;91561.66;;;5.91;100.00
52735;BME280;38631;47.572;10.704;2023-03-26T12:33:18;91556.81;;;5.84;100.00
52735;BME280;38631;47.572;10.704;2023-03-26T12:35:44;91547.00;;;5.99;100.00
52735;BME280;38631;47.572;10.704;2023-03-26T12:41:06;91523.34;;;5.85;100.00
52735;BME280;38631;47.572;10.704;2023-03-26T12:43:46;91500.44;;;5.63;100.00
52735;BME280;38631;47.572;10.704;2023-03-26T12:46:38;91484.47;;;5.59;100.00
52735;BME280;38631;47.572;10.704;2023-03-26T12:49:05;91478.75;;;5.66;100.00
52735;BME280;38631;47.572;10.704;2023-03-26T12:51:58;91497.94;;;6.12;100.00
52735;BME280;38631;47.572;10.704;2023-03-26T12:54:50;91478.03;;;6.37;100.00
52735;BME280;38631;47.572;10.704;2023-03-26T12:57:29;91475.47;;;6.14;100.00
52735;BME280;38631;47.572;10.704;2023-03-26T13:00:35;91463.31;;;6.36;98.89
52735;BME280;38631;47.572;10.704;2023-03-26T13:03:10;91463.75;;;6.29;95.54
52735;BME280;38631;47.572;10.704;2023-03-26T13:06:06;91454.44;;;6.23;100.00
52735;BME280;38631;47.572;10.704;2023-03-26T13:11:21;91449.72;;;6.51;96.58
52735;BME280;38631;47.572;10.704;2023-03-26T13:14:06;91447.13;;;6.60;98.93
52735;BME280;38631;47.572;10.704;2023-03-26T13:16:54;91433.47;;;6.66;97.71
52735;BME280;38631;47.572;10.704;2023-03-26T13:20:32;91433.13;;;6.59;98.05
52735;BME280;38631;47.572;10.704;2023-03-26T13:22:48;91439.84;;;6.65;92.31
52735;BME280;38631;47.572;10.704;2023-03-26T13:25:32;91425.72;;;6.70;94.31
52735;BME280;38631;47.572;10.704;2023-03-26T13:31:23;91431.66;;;6.93;88.72
52735;BME280;38631;47.572;10.704;2023-03-26T13:39:20;91413.00;;;6.89;87.72
52735;BME280;38631;47.572;10.704;2023-03-26T13:42:22;91412.09;;;7.03;89.64
52735;BME280;38631;47.572;10.704;2023-03-26T13:45:00;91410.09;;;7.00;90.43
52735;BME280;38631;47.572;10.704;2023-03-26T13:47:29;91408.66;;;6.93;85.55
52735;BME280;38631;47.572;10.704;2023-03-26T13:49:57;91404.16;;;6.94;82.65
52735;BME280;38631;47.572;10.704;2023-03-26T13:52:30;91393.13;;;6.92;81.44
52735;BME280;38631;47.572;10.704;2023-03-26T14:00:24;91399.97;;;7.10;83.88
52735;BME280;38631;47.572;10.704;2023-03-26T14:03:06;91391.59;;;6.91;82.17
52735;BME280;38631;47.572;10.704;2023-03-26T14:05:42;91374.38;;;6.85;82.47
52735;BME280;38631;47.572;10.704;2023-03-26T14:10:50;91367.53;;;6.84;80.90
52735;BME280;38631;47.572;10.704;2023-03-26T14:13:25;91364.72;;;6.89;82.00
52735;BME280;38631;47.572;10.704;2023-03-26T14:15:56;91365.84;;;6.88;82.09
52735;BME280;38631;47.572;10.704;2023-03-26T14:18:34;91361.03;;;6.90;82.91
52735;BME280;38631;47.572;10.704;2023-03-26T14:21:19;91359.78;;;6.96;81.83
52735;BME280;38631;47.572;10.704;2023-03-26T14:27:04;91355.91;;;7.02;81.72
52735;BME280;38631;47.572;10.704;2023-03-26T14:35:46;91345.81;;;6.78;79.02
52735;BME280;38631;47.572;10.704;2023-03-26T14:41:24;91343.47;;;6.68;78.77
52735;BME280;38631;47.572;10.704;2023-03-26T14:49:28;91339.44;;;6.62;77.53
52735;BME280;38631;47.572;10.704;2023-03-26T14:52:30;91331.38;;;6.58;77.36
52735;BME280;38631;47.572;10.704;2023-03-26T14:55:05;91326.88;;;6.59;77.69
52735;BME280;38631;47.572;10.704;2023-03-26T15:48:34;91317.56;;;6.35;89.03
52735;BME280;38631;47.572;10.704;2023-03-26T15:51:14;91323.91;;;6.52;87.85
52735;BME280;38631;47.572;10.704;2023-03-26T16:04:44;91311.97;;;6.54;87.64
52735;BME280;38631;47.572;10.704;2023-03-26T16:10:35;91307.34;;;6.60;88.22
52735;BME280;38631;47.572;10.704;2023-03-26T16:16:16;91302.69;;;6.65;87.69
52735;BME280;38631;47.572;10.704;2023-03-26T16:18:44;91300.66;;;6.54;87.71
52735;BME280;38631;47.572;10.704;2023-03-26T16:24:10;91292.13;;;6.48;89.71
52735;BME280;38631;47.572;10.704;2023-03-26T16:32:22;91308.09;;;6.52;90.29
52735;BME280;38631;47.572;10.704;2023-03-26T16:35:21;91315.06;;;6.30;90.00
52735;BME280;38631;47.572;10.704;2023-03-26T16:37:49;91323.28;;;6.37;91.44
52735;BME280;38631;47.572;10.704;2023-03-26T16:40:40;91349.81;;;6.41;90.76
52735;BME280;38631;47.572;10.704;2023-03-26T16:46:27;91417.25;;;6.42;91.40
52735;BME280;38631;47.572;10.704;2023-03-26T16:54:50;91495.06;;;4.59;100.00
52735;BME280;38631;47.572;10.704;2023-03-26T16:57:27;91490.69;;;4.54;100.00
52735;BME280;38631;47.572;10.704;2023-03-26T17:05:16;91472.69;;;4.98;100.00
52735;BME280;38631;47.572;10.704;2023-03-26T17:08:08;91483.13;;;4.75;100.00
52735;BME280;38631;47.572;10.704;2023-03-26T17:10:43;91489.69;;;4.50;100.00
52735;BME280;38631;47.572;10.704;2023-03-26T17:13:31;91491.94;;;4.43;100.00
52735;BME280;38631;47.572;10.704;2023-03-26T17:19:04;91472.94;;;4.46;100.00
52735;BME280;38631;47.572;10.704;2023-03-26T17:25:01;91483.19;;;4.06;100.00
52735;BME280;38631;47.572;10.704;2023-03-26T17:27:32;91499.91;;;4.66;100.00
52735;BME280;38631;47.572;10.704;2023-03-26T17:38:00;91480.66;;;4.57;100.00
52735;BME280;38631;47.572;10.704;2023-03-26T17:40:30;91470.78;;;3.79;100.00
52735;BME280;38631;47.572;10.704;2023-03-26T17:43:09;91472.84;;;4.24;100.00
52735;BME280;38631;47.572;10.704;2023-03-26T17:45:38;91447.53;;;4.55;100.00
52735;BME280;38631;47.572;10.704;2023-03-26T17:48:16;91472.16;;;4.60;100.00
52735;BME280;38631;47.572;10.704;2023-03-26T17:50:54;91468.88;;;4.26;100.00
52735;BME280;38631;47.572;10.704;2023-03-26T17:53:32;91457.75;;;3.88;100.00
52735;BME280;38631;47.572;10.704;2023-03-26T17:56:11;91454.84;;;4.45;100.00
52735;BME280;38631;47.572;10.704;2023-03-26T17:58:40;91444.16;;;4.14;100.00
52735;BME280;38631;47.572;10.704;2023-03-26T18:03:35;91435.47;;;4.41;100.00
52735;BME280;38631;47.572;10.704;2023-03-26T18:06:14;91427.41;;;3.96;100.00
52735;BME280;38631;47.572;10.704;2023-03-26T18:11:26;91433.94;;;4.40;100.00
52735;BME280;38631;47.572;10.704;2023-03-26T18:14:28;91435.09;;;4.33;100.00